createdAt,value
2018-05-26T00:00:26.590Z,5.20
2018-05-26T00:02:54.004Z,5.55
2018-05-26T00:05:21.430Z,10.60
2018-05-26T00:07:48.837Z,9.13
2018-05-26T00:10:16.256Z,5.10
2018-05-26T00:12:43.669Z,10.32
2018-05-26T00:15:11.068Z,7.25
2018-05-26T00:17:38.488Z,6.62
2018-05-26T00:20:05.896Z,5.97
2018-05-26T00:22:33.321Z,7.72
2018-05-26T00:25:00.740Z,10.65
2018-05-26T00:27:28.160Z,5.40
2018-05-26T00:29:55.581Z,11.80
2018-05-26T00:32:23.004Z,5.62
2018-05-26T00:34:50.409Z,6.80
2018-05-26T00:37:17.825Z,7.87
2018-05-26T00:39:45.245Z,9.27
2018-05-26T00:42:12.659Z,13.30
2018-05-26T00:44:40.080Z,13.93
2018-05-26T00:47:07.506Z,12.40
2018-05-26T00:49:34.917Z,8.13
2018-05-26T00:52:02.337Z,12.57
2018-05-26T00:54:29.740Z,6.30
2018-05-26T00:56:57.166Z,5.97
2018-05-26T00:59:24.582Z,12.90
2018-05-26T01:01:51.993Z,9.05
2018-05-26T01:04:19.397Z,7.97
2018-05-26T01:06:46.821Z,9.57
2018-05-26T01:09:14.224Z,6.28
2018-05-26T01:11:41.644Z,9.18
2018-05-26T01:14:09.052Z,6.95
2018-05-26T01:16:36.472Z,8.27
2018-05-26T01:19:03.889Z,8.90
2018-05-26T01:21:31.317Z,8.02
2018-05-26T01:23:58.723Z,10.25
2018-05-26T01:26:26.151Z,14.00
2018-05-26T01:28:53.563Z,13.05
2018-05-26T01:31:20.985Z,16.62
2018-05-26T01:33:48.385Z,7.32
2018-05-26T01:36:15.801Z,8.68
2018-05-26T01:38:43.222Z,16.00
2018-05-26T01:41:10.629Z,13.45
2018-05-26T01:43:38.053Z,11.50
2018-05-26T01:46:05.466Z,12.00
2018-05-26T01:48:32.897Z,11.27
2018-05-26T01:51:00.313Z,15.18
2018-05-26T01:53:27.740Z,18.55
2018-05-26T01:55:55.152Z,10.15
2018-05-26T01:58:22.575Z,12.37
2018-05-26T02:00:49.985Z,15.05
2018-05-26T02:03:17.412Z,13.38
2018-05-26T02:05:44.828Z,17.85
2018-05-26T02:08:12.255Z,14.70
2018-05-26T02:10:39.668Z,18.12
2018-05-26T02:13:07.100Z,13.35
2018-05-26T02:15:34.517Z,12.50
2018-05-26T02:18:01.932Z,30.73
2018-05-26T02:20:29.380Z,15.75
2018-05-26T02:22:56.837Z,10.70
2018-05-26T02:25:24.252Z,14.90
2018-05-26T02:27:51.672Z,16.80
2018-05-26T02:30:19.200Z,12.70
2018-05-26T02:32:46.628Z,19.08
2018-05-26T02:35:14.043Z,13.07
2018-05-26T02:37:41.569Z,12.52
2018-05-26T02:40:09.017Z,11.63
2018-05-26T02:42:36.445Z,15.30
2018-05-26T02:45:03.848Z,15.32
2018-05-26T02:47:31.285Z,15.00
2018-05-26T02:49:58.688Z,11.45
2018-05-26T02:52:26.201Z,14.55
2018-05-26T02:54:53.616Z,14.25
2018-05-26T02:57:21.109Z,12.93
2018-05-26T02:59:48.515Z,13.85
2018-05-26T03:02:16.012Z,15.80
2018-05-26T03:04:49.177Z,12.70
2018-05-26T03:07:22.161Z,20.17
2018-05-26T03:09:55.116Z,13.45
2018-05-26T03:12:28.035Z,8.98
2018-05-26T03:14:54.896Z,10.77
2018-05-26T03:17:22.305Z,9.73
2018-05-26T03:19:49.812Z,10.93
2018-05-26T03:22:17.264Z,8.82
2018-05-26T03:24:44.679Z,9.65
2018-05-26T03:27:12.177Z,19.77
2018-05-26T03:29:39.637Z,9.38
2018-05-26T03:32:07.093Z,10.75
2018-05-26T03:34:34.512Z,12.15
2018-05-26T03:37:02.009Z,11.68
2018-05-26T03:39:29.427Z,11.05
2018-05-26T03:41:56.844Z,17.80
2018-05-26T03:44:24.256Z,8.27
2018-05-26T03:46:51.720Z,8.55
2018-05-26T03:49:19.145Z,10.52
2018-05-26T03:51:46.556Z,16.45
2018-05-26T03:54:14.006Z,12.45
2018-05-26T03:56:53.352Z,19.92
2018-05-26T04:02:16.384Z,14.05
2018-05-26T04:04:43.820Z,22.10
2018-05-26T04:07:11.257Z,11.05
2018-05-26T04:09:38.684Z,15.88
2018-05-26T04:12:06.094Z,13.50
2018-05-26T04:14:33.525Z,11.70
2018-05-26T04:17:00.928Z,12.52
2018-05-26T04:19:28.360Z,17.35
2018-05-26T04:21:55.767Z,25.33
2018-05-26T04:24:23.184Z,6.78
2018-05-26T04:26:50.639Z,9.85
2018-05-26T04:29:18.066Z,13.55
2018-05-26T04:31:45.472Z,12.93
2018-05-26T04:34:12.900Z,12.10
2018-05-26T04:36:40.304Z,6.30
2018-05-26T04:39:07.720Z,16.48
2018-05-26T04:41:35.136Z,11.82
2018-05-26T04:44:02.571Z,15.30
2018-05-26T04:46:30.044Z,11.32
2018-05-26T04:48:57.529Z,5.82
2018-05-26T04:51:24.949Z,10.32
2018-05-26T04:53:52.372Z,8.90
2018-05-26T04:56:19.782Z,7.68
2018-05-26T04:58:47.208Z,9.02
2018-05-26T05:01:14.617Z,9.48
2018-05-26T05:03:42.058Z,9.35
2018-05-26T05:06:09.467Z,4.90
2018-05-26T05:08:36.884Z,5.70
2018-05-26T05:11:04.293Z,8.77
2018-05-26T05:13:31.708Z,6.55
2018-05-26T05:15:59.143Z,8.18
2018-05-26T05:18:26.588Z,8.18
2018-05-26T05:20:54.016Z,6.15
2018-05-26T05:23:21.424Z,9.68
2018-05-26T05:25:48.855Z,8.82
2018-05-26T05:28:16.279Z,5.93
2018-05-26T05:30:43.691Z,9.25
2018-05-26T05:33:11.111Z,9.80
2018-05-26T05:35:38.580Z,6.93
2018-05-26T05:38:06.027Z,6.60
2018-05-26T05:40:33.453Z,5.37
2018-05-26T05:43:00.868Z,9.27
2018-05-26T05:45:28.287Z,6.18
2018-05-26T05:47:55.689Z,5.80
2018-05-26T05:50:23.113Z,12.37
2018-05-26T05:52:50.531Z,7.07
2018-05-26T05:55:17.952Z,8.00
2018-05-26T05:57:45.375Z,8.02
2018-05-26T06:00:12.803Z,10.52
2018-05-26T06:02:40.204Z,6.85
2018-05-26T06:05:07.628Z,6.97
2018-05-26T06:07:35.031Z,7.00
2018-05-26T06:10:02.444Z,7.72
2018-05-26T06:12:29.863Z,7.97
2018-05-26T06:14:57.316Z,7.10
2018-05-26T06:17:24.691Z,6.28
2018-05-26T06:19:52.145Z,7.45
2018-05-26T06:22:19.561Z,8.27
2018-05-26T06:24:46.973Z,8.30
2018-05-26T06:27:14.385Z,8.35
2018-05-26T06:29:41.800Z,5.50
2018-05-26T06:32:09.208Z,5.75
2018-05-26T06:34:36.629Z,12.65
2018-05-26T06:37:04.041Z,10.70
2018-05-26T06:39:31.464Z,7.72
2018-05-26T06:41:58.868Z,7.97
2018-05-26T06:44:26.287Z,6.80
2018-05-26T06:46:53.697Z,7.05
2018-05-26T06:49:21.115Z,10.23
2018-05-26T06:51:48.537Z,11.60
2018-05-26T06:54:15.964Z,9.50
2018-05-26T06:56:43.379Z,7.70
2018-05-26T06:59:10.781Z,8.70
2018-05-26T07:01:38.197Z,7.32
2018-05-26T07:04:05.596Z,8.25
2018-05-26T07:06:33.065Z,7.78
2018-05-26T07:09:00.468Z,9.68
2018-05-26T07:11:27.889Z,11.20
2018-05-26T07:13:55.308Z,11.50
2018-05-26T07:16:22.724Z,11.10
2018-05-26T07:18:50.140Z,17.45
2018-05-26T07:21:17.568Z,7.55
2018-05-26T07:23:44.964Z,6.90
2018-05-26T07:26:17.447Z,10.10
2018-05-26T07:31:47.577Z,11.68
2018-05-26T07:34:33.361Z,11.93
2018-05-26T07:37:04.575Z,13.48
2018-05-26T07:39:33.134Z,40.30
2018-05-26T07:42:03.804Z,19.20
2018-05-26T07:44:37.716Z,13.95
2018-05-26T07:47:08.470Z,14.87
2018-05-26T07:49:39.087Z,11.40
2018-05-26T07:52:14.851Z,16.02
2018-05-26T07:54:46.196Z,19.23
2018-05-26T07:57:19.079Z,19.23
2018-05-26T07:59:46.643Z,16.85
2018-05-26T08:02:14.067Z,19.58
2018-05-26T08:04:41.479Z,23.50
2018-05-26T08:07:08.908Z,16.87
2018-05-26T08:09:36.320Z,23.40
2018-05-26T08:12:03.741Z,28.80
2018-05-26T08:14:31.161Z,31.83
2018-05-26T08:16:58.582Z,30.77
2018-05-26T08:19:25.999Z,26.20
2018-05-26T08:21:53.532Z,22.40
2018-05-26T08:24:20.961Z,21.87
2018-05-26T08:26:48.442Z,25.75
2018-05-26T08:29:15.908Z,22.77
2018-05-26T08:31:44.706Z,24.90
2018-05-26T08:34:12.112Z,24.60
2018-05-26T08:36:39.538Z,23.70
2018-05-26T08:39:06.957Z,36.00
2018-05-26T08:41:34.388Z,28.17
2018-05-26T08:44:01.798Z,31.02
2018-05-26T08:46:29.225Z,24.77
2018-05-26T08:48:56.656Z,38.50
2018-05-26T08:51:24.078Z,30.20
2018-05-26T08:53:51.502Z,26.55
2018-05-26T08:56:18.921Z,32.50
2018-05-26T08:58:46.397Z,33.00
2018-05-26T09:01:13.832Z,42.78
2018-05-26T09:03:41.308Z,33.42
2018-05-26T09:06:08.745Z,36.88
2018-05-26T09:08:36.168Z,42.42
2018-05-26T09:11:03.708Z,44.58
2018-05-26T09:13:31.129Z,49.92
2018-05-26T09:15:58.567Z,52.90
2018-05-26T09:18:25.984Z,55.47
2018-05-26T09:20:53.409Z,51.17
2018-05-26T09:23:20.846Z,42.13
2018-05-26T09:25:48.269Z,33.00
2018-05-26T09:28:15.683Z,40.53
2018-05-26T09:30:43.110Z,34.67
2018-05-26T09:33:10.676Z,59.25
2018-05-26T09:35:38.122Z,51.47
2018-05-26T09:38:05.550Z,45.47
2018-05-26T09:40:32.959Z,77.97
2018-05-26T09:43:00.496Z,56.72
2018-05-26T09:45:27.917Z,59.00
2018-05-26T09:47:55.332Z,46.35
2018-05-26T09:50:22.752Z,73.97
2018-05-26T09:52:50.181Z,98.15
2018-05-26T09:55:17.605Z,68.40
2018-05-26T09:57:45.073Z,47.53
2018-05-26T10:00:12.484Z,57.62
2018-05-26T10:02:39.914Z,55.63
2018-05-26T10:05:07.385Z,71.20
2018-05-26T10:07:34.846Z,58.20
2018-05-26T10:10:02.267Z,55.40
2018-05-26T10:12:29.701Z,69.97
2018-05-26T10:14:57.223Z,42.97
2018-05-26T10:17:24.681Z,49.75
2018-05-26T10:19:52.110Z,37.78
2018-05-26T10:22:19.574Z,48.97
2018-05-26T10:24:46.998Z,51.45
2018-05-26T10:27:14.488Z,59.72
2018-05-26T10:29:41.907Z,60.08
2018-05-26T10:32:09.381Z,59.33
2018-05-26T10:34:36.821Z,62.47
2018-05-26T10:37:04.248Z,74.25
2018-05-26T10:39:31.672Z,58.15
2018-05-26T10:41:59.101Z,57.67
2018-05-26T10:44:26.546Z,74.65
2018-05-26T10:46:54.000Z,65.80
2018-05-26T10:49:21.419Z,71.32
2018-05-26T10:51:48.945Z,63.22
2018-05-26T10:54:16.401Z,77.75
2018-05-26T10:56:43.848Z,73.47
2018-05-26T10:59:11.281Z,68.00
2018-05-26T11:01:38.760Z,69.37
2018-05-26T11:04:06.216Z,69.00
2018-05-26T11:06:45.559Z,47.15
2018-05-26T11:09:12.983Z,50.72
2018-05-26T11:11:40.413Z,44.60
2018-05-26T11:14:07.832Z,86.20
2018-05-26T11:16:35.282Z,82.30
2018-05-26T11:19:02.747Z,79.97
2018-05-26T11:21:30.141Z,82.32
2018-05-26T11:23:57.650Z,83.50
2018-05-26T11:26:24.976Z,72.60
2018-05-26T11:28:52.459Z,75.37
2018-05-26T11:31:19.859Z,84.13
2018-05-26T11:33:47.290Z,94.63
2018-05-26T11:36:14.709Z,66.53
2018-05-26T11:38:42.156Z,57.03
2018-05-26T11:41:09.581Z,70.10
2018-05-26T11:43:37.028Z,74.53
2018-05-26T11:46:04.441Z,108.20
2018-05-26T11:48:31.888Z,74.82
2018-05-26T11:50:59.300Z,95.55
2018-05-26T11:53:26.763Z,72.50
2018-05-26T11:55:54.170Z,84.32
2018-05-26T11:58:21.607Z,69.12
2018-05-26T12:00:49.032Z,87.00
2018-05-26T12:03:16.470Z,81.72
2018-05-26T12:05:43.884Z,65.30
2018-05-26T12:08:11.324Z,85.80
2018-05-26T12:10:38.813Z,72.72
2018-05-26T12:13:06.249Z,86.68
2018-05-26T12:15:33.660Z,75.80
2018-05-26T12:18:01.149Z,90.73
2018-05-26T12:20:28.564Z,50.50
2018-05-26T12:22:55.987Z,85.17
2018-05-26T12:25:23.437Z,57.70
2018-05-26T12:27:50.869Z,79.47
2018-05-26T12:30:18.328Z,65.07
2018-05-26T12:32:45.774Z,61.33
2018-05-26T12:35:13.188Z,62.67
2018-05-26T12:37:40.691Z,59.83
2018-05-26T12:40:08.107Z,82.23
2018-05-26T12:42:35.541Z,62.13
2018-05-26T12:45:02.964Z,63.05
2018-05-26T12:47:30.384Z,62.53
2018-05-26T12:49:57.807Z,70.67
2018-05-26T12:52:25.233Z,64.10
2018-05-26T12:54:52.647Z,69.20
2018-05-26T12:57:20.145Z,72.10
2018-05-26T12:59:47.592Z,94.07
2018-05-26T13:02:15.016Z,87.33
2018-05-26T13:04:42.502Z,97.40
2018-05-26T13:07:09.928Z,105.13
2018-05-26T13:09:37.552Z,107.03
2018-05-26T13:12:04.980Z,110.27
2018-05-26T13:14:32.408Z,93.73
2018-05-26T13:17:00.634Z,103.03
2018-05-26T13:19:28.062Z,100.67
2018-05-26T13:21:55.649Z,83.27
2018-05-26T13:24:23.064Z,91.17
2018-05-26T13:26:50.480Z,88.87
2018-05-26T13:29:17.908Z,88.67
2018-05-26T13:31:45.578Z,82.37
2018-05-26T13:34:13.000Z,83.87
2018-05-26T13:36:40.417Z,86.60
2018-05-26T13:39:07.850Z,66.20
2018-05-26T13:41:35.280Z,69.40
2018-05-26T13:44:02.708Z,65.83
2018-05-26T13:46:30.128Z,91.82
2018-05-26T13:48:57.612Z,108.50
2018-05-26T13:51:25.047Z,72.13
2018-05-26T13:53:52.469Z,81.53
2018-05-26T13:56:19.935Z,95.87
2018-05-26T13:58:47.449Z,68.50
2018-05-26T14:01:15.064Z,99.97
2018-05-26T14:03:42.481Z,74.43
2018-05-26T14:06:09.895Z,89.20
2018-05-26T14:08:37.340Z,75.00
2018-05-26T14:11:04.768Z,72.35
2018-05-26T14:13:32.276Z,89.73
2018-05-26T14:15:59.729Z,61.53
2018-05-26T14:18:27.136Z,101.27
2018-05-26T14:20:54.553Z,64.57
2018-05-26T14:23:21.987Z,55.38
2018-05-26T14:25:49.464Z,75.03
2018-05-26T14:28:16.908Z,73.03
2018-05-26T14:30:44.389Z,65.28
2018-05-26T14:33:11.819Z,63.28
2018-05-26T14:35:39.244Z,102.38
2018-05-26T14:38:06.746Z,51.72
2018-05-26T14:40:34.197Z,49.97
2018-05-26T14:43:01.617Z,76.72
2018-05-26T14:45:29.096Z,55.97
2018-05-26T14:47:56.504Z,73.00
2018-05-26T14:50:23.929Z,45.83
2018-05-26T14:52:51.370Z,44.03
2018-05-26T14:55:18.818Z,48.17
2018-05-26T14:57:46.236Z,41.72
2018-05-26T15:00:13.672Z,50.38
2018-05-26T15:02:41.089Z,54.78
2018-05-26T15:05:08.513Z,66.47
2018-05-26T15:07:35.930Z,75.00
2018-05-26T15:10:03.356Z,62.67
2018-05-26T15:12:30.801Z,54.75
2018-05-26T15:14:58.228Z,62.42
2018-05-26T15:17:25.644Z,42.05
2018-05-26T15:19:53.073Z,52.28
2018-05-26T15:22:20.533Z,43.85
2018-05-26T15:24:47.982Z,47.88
2018-05-26T15:27:15.400Z,50.72
2018-05-26T15:29:42.823Z,45.90
2018-05-26T15:32:10.344Z,43.95
2018-05-26T15:34:37.774Z,45.63
2018-05-26T15:37:05.184Z,39.60
2018-05-26T15:39:32.616Z,60.75
2018-05-26T15:42:00.039Z,57.03
2018-05-26T15:44:27.468Z,47.08
2018-05-26T15:46:54.977Z,48.20
2018-05-26T15:49:22.412Z,59.72
2018-05-26T15:51:49.844Z,54.65
2018-05-26T15:54:17.280Z,48.30
2018-05-26T15:56:44.814Z,75.70
2018-05-26T15:59:12.229Z,61.95
2018-05-26T16:01:39.653Z,56.08
2018-05-26T16:04:07.068Z,57.90
2018-05-26T16:06:34.524Z,46.75
2018-05-26T16:09:01.973Z,51.40
2018-05-26T16:11:29.430Z,71.40
2018-05-26T16:13:56.839Z,37.22
2018-05-26T16:16:24.260Z,34.72
2018-05-26T16:18:51.704Z,38.38
2018-05-26T16:21:19.152Z,51.90
2018-05-26T16:23:46.577Z,33.42
2018-05-26T16:26:14.000Z,53.67
2018-05-26T16:28:41.468Z,37.35
2018-05-26T16:31:08.897Z,42.45
2018-05-26T16:33:36.311Z,41.10
2018-05-26T16:36:03.785Z,40.85
2018-05-26T16:38:31.200Z,40.58
2018-05-26T16:40:58.621Z,47.53
2018-05-26T16:43:26.043Z,41.67
2018-05-26T16:45:53.468Z,30.83
2018-05-26T16:48:20.879Z,34.50
2018-05-26T16:50:48.332Z,33.08
2018-05-26T16:53:15.753Z,45.92
2018-05-26T16:55:43.177Z,43.05
2018-05-26T16:58:10.596Z,47.53
2018-05-26T17:00:38.024Z,32.35
2018-05-26T17:03:05.431Z,31.80
2018-05-26T17:05:32.856Z,37.88
2018-05-26T17:08:00.272Z,23.70
2018-05-26T17:10:27.687Z,34.90
2018-05-26T17:12:55.121Z,38.42
2018-05-26T17:15:22.554Z,34.00
2018-05-26T17:17:49.975Z,34.03
2018-05-26T17:20:17.404Z,30.23
2018-05-26T17:22:44.833Z,33.03
2018-05-26T17:25:12.253Z,56.65
2018-05-26T17:27:39.689Z,317.33
2018-05-26T17:30:07.120Z,1999.90
2018-05-26T17:32:34.543Z,1999.90
2018-05-26T17:35:01.972Z,1928.75
2018-05-26T17:37:29.405Z,900.40
2018-05-26T17:39:56.833Z,628.25
2018-05-26T17:42:24.264Z,266.05
2018-05-26T17:44:51.692Z,143.20
2018-05-26T17:47:19.112Z,72.78
2018-05-26T17:49:46.535Z,69.32
2018-05-26T17:52:13.959Z,79.07
2018-05-26T17:54:41.409Z,90.20
2018-05-26T17:57:08.836Z,41.30
2018-05-26T17:59:36.256Z,28.50
2018-05-26T18:02:03.692Z,30.20
2018-05-26T18:04:31.108Z,31.95
2018-05-26T18:06:58.533Z,21.12
2018-05-26T18:09:25.948Z,32.05
2018-05-26T18:11:53.385Z,22.92
2018-05-26T18:14:20.800Z,26.45
2018-05-26T18:16:48.221Z,19.08
2018-05-26T18:19:15.640Z,19.58
2018-05-26T18:21:43.060Z,24.45
2018-05-26T18:24:10.481Z,20.35
2018-05-26T18:26:37.901Z,20.62
2018-05-26T18:29:05.344Z,19.42
2018-05-26T18:31:32.778Z,16.95
2018-05-26T18:34:00.190Z,18.52
2018-05-26T18:36:27.608Z,21.52
2018-05-26T18:38:55.037Z,16.42
2018-05-26T18:41:22.473Z,290.62
2018-05-26T18:43:49.895Z,1999.90
2018-05-26T18:46:17.332Z,1999.90
2018-05-26T18:48:44.817Z,1999.90
2018-05-26T18:51:12.200Z,1001.63
2018-05-26T18:53:39.628Z,360.92
2018-05-26T18:56:07.064Z,229.25
2018-05-26T18:58:34.482Z,165.62
2018-05-26T19:01:01.915Z,97.62
2018-05-26T19:03:29.363Z,80.65
2018-05-26T19:05:56.849Z,63.72
2018-05-26T19:08:24.260Z,47.88
2018-05-26T19:10:51.675Z,36.78
2018-05-26T19:13:19.109Z,38.80
2018-05-26T19:15:46.524Z,27.48
2018-05-26T19:18:13.947Z,33.97
2018-05-26T19:20:41.400Z,32.90
2018-05-26T19:23:08.825Z,21.17
2018-05-26T19:25:36.241Z,28.10
2018-05-26T19:28:03.659Z,20.35
2018-05-26T19:30:31.089Z,25.73
2018-05-26T19:32:58.511Z,26.17
2018-05-26T19:35:25.924Z,19.87
2018-05-26T19:37:53.344Z,20.30
2018-05-26T19:40:20.778Z,21.45
2018-05-26T19:42:48.196Z,30.00
2018-05-26T19:45:15.615Z,19.75
2018-05-26T19:47:43.045Z,17.83
2018-05-26T19:50:10.522Z,24.08
2018-05-26T19:52:37.879Z,19.83
2018-05-26T19:55:05.300Z,15.43
2018-05-26T19:57:32.725Z,13.02
2018-05-26T20:00:00.157Z,17.50
2018-05-26T20:02:27.576Z,19.52
2018-05-26T20:04:54.988Z,21.52
2018-05-26T20:07:22.421Z,16.77
2018-05-26T20:09:49.844Z,19.27
2018-05-26T20:12:17.264Z,19.10
2018-05-26T20:14:44.697Z,16.02
2018-05-26T20:17:12.131Z,16.35
2018-05-26T20:19:39.553Z,17.25
2018-05-26T20:22:06.982Z,22.37
2018-05-26T20:24:34.399Z,21.80
2018-05-26T20:27:01.816Z,19.42
2018-05-26T20:29:29.228Z,19.30
2018-05-26T20:31:56.657Z,24.98
2018-05-26T20:34:24.076Z,21.70
2018-05-26T20:36:51.505Z,18.20
2018-05-26T20:39:18.924Z,17.45
2018-05-26T20:41:46.369Z,21.27
2018-05-26T20:44:13.782Z,18.40
2018-05-26T20:46:41.199Z,17.48
2018-05-26T20:49:08.620Z,18.02
2018-05-26T20:51:36.032Z,17.55
2018-05-26T20:54:03.452Z,16.92
2018-05-26T20:56:30.868Z,13.60
2018-05-26T20:58:58.292Z,17.65
2018-05-26T21:01:25.717Z,16.75
2018-05-26T21:03:53.139Z,14.35
2018-05-26T21:06:20.552Z,14.35
2018-05-26T21:08:47.994Z,15.50
2018-05-26T21:11:15.399Z,14.55
2018-05-26T21:13:42.829Z,17.75
2018-05-26T21:16:10.249Z,18.23
2018-05-26T21:18:37.675Z,12.15
2018-05-26T21:21:05.099Z,13.38
2018-05-26T21:23:32.525Z,15.50
2018-05-26T21:25:59.950Z,12.63
2018-05-26T21:28:27.387Z,10.48
2018-05-26T21:30:54.795Z,10.13
2018-05-26T21:33:22.221Z,11.30
2018-05-26T21:35:49.632Z,13.40
2018-05-26T21:38:17.058Z,8.70
2018-05-26T21:40:44.465Z,8.30
2018-05-26T21:43:11.882Z,9.68
2018-05-26T21:45:39.308Z,9.95
2018-05-26T21:48:06.732Z,11.35
2018-05-26T21:50:34.146Z,14.75
2018-05-26T21:53:01.577Z,15.77
2018-05-26T21:55:28.997Z,10.88
2018-05-26T21:57:56.441Z,9.43
2018-05-26T22:00:23.810Z,9.32
2018-05-26T22:02:51.224Z,9.80
2018-05-26T22:05:18.647Z,12.60
2018-05-26T22:07:46.058Z,8.52
2018-05-26T22:10:13.464Z,9.48
2018-05-26T22:12:40.898Z,15.25
2018-05-26T22:15:08.309Z,9.40
2018-05-26T22:17:35.725Z,8.02
2018-05-26T22:20:03.143Z,7.53
2018-05-26T22:22:30.552Z,8.63
2018-05-26T22:24:57.972Z,7.25
2018-05-26T22:27:25.392Z,8.15
2018-05-26T22:29:52.819Z,5.47
2018-05-26T22:32:20.230Z,6.30
2018-05-26T22:34:47.645Z,20.00
2018-05-26T22:37:15.052Z,9.35
2018-05-26T22:39:42.469Z,7.40
2018-05-26T22:42:09.880Z,8.13
2018-05-26T22:44:37.304Z,12.68
2018-05-26T22:47:04.720Z,9.30
2018-05-26T22:49:32.141Z,7.22
2018-05-26T22:51:59.553Z,7.55
2018-05-26T22:54:26.972Z,5.97
2018-05-26T22:56:54.391Z,4.90
2018-05-26T22:59:21.806Z,14.95
2018-05-26T23:01:49.216Z,5.75
2018-05-26T23:04:16.628Z,7.53
2018-05-26T23:06:44.031Z,9.77
2018-05-26T23:09:11.452Z,7.53
2018-05-26T23:11:38.876Z,9.60
2018-05-26T23:14:06.297Z,8.00
2018-05-26T23:16:33.712Z,9.77
2018-05-26T23:19:01.128Z,8.68
2018-05-26T23:21:28.537Z,6.15
2018-05-26T23:23:55.962Z,3.78
2018-05-26T23:26:23.378Z,6.82
2018-05-26T23:28:50.805Z,11.07
2018-05-26T23:31:18.213Z,7.25
2018-05-26T23:33:45.628Z,8.50
2018-05-26T23:36:13.040Z,6.75
2018-05-26T23:38:40.457Z,8.93
2018-05-26T23:41:07.877Z,11.23
2018-05-26T23:43:35.289Z,6.90
2018-05-26T23:46:02.697Z,7.93
2018-05-26T23:48:30.170Z,8.25
2018-05-26T23:50:57.524Z,8.02
2018-05-26T23:53:24.983Z,12.35
2018-05-26T23:55:52.389Z,7.30
2018-05-26T23:58:19.795Z,7.32
